Time;durP1;ratioP1;P1;durP2;ratioP2;P2;SDS_P1;SDS_P2;PMS_P1;PMS_P2;Temp;Humidity;BMP_temperature;BMP_pressure;BME280_temperature;BME280_humidity;BME280_pressure;Samples;Min_cycle;Max_cycle;Signal;HPM_P1;HPM_P2
2022/05/07 00:01:42;;;;;;;21.10;16.20;;;;;;;11.95;72.09;99260.33;219402;1274;22556;-69
2022/05/07 00:06:45;;;;;;;18.60;15.30;;;;;;;11.85;72.34;99254.93;219261;1275;321518;-67
2022/05/07 00:11:51;;;;;;;22.20;17.20;;;;;;;11.75;72.64;99254.73;219266;1274;25451;-70
2022/05/07 00:22:16;;;;;;;21.10;17.00;;;;;;;11.48;73.19;99254.16;219700;1274;22525;-70
2022/05/07 00:27:20;;;;;;;23.20;16.60;;;;;;;11.38;73.50;99254.04;219784;1273;24291;-70
2022/05/07 00:32:29;;;;;;;20.00;16.60;;;;;;;11.29;73.96;99257.65;219361;1274;24341;-68
2022/05/07 00:37:51;;;;;;;23.70;16.70;;;;;;;11.22;74.12;99259.11;219474;1274;24266;-69
2022/05/07 00:42:54;;;;;;;22.10;16.40;;;;;;;11.18;74.35;99261.07;219293;1274;22614;-69
2022/05/07 00:47:57;;;;;;;20.80;15.90;;;;;;;11.12;74.54;99254.94;219593;1274;22569;-69
2022/05/07 00:53:03;;;;;;;21.80;16.30;;;;;;;11.11;74.80;99256.84;219601;1273;22531;-69
2022/05/07 00:58:06;;;;;;;21.80;17.40;;;;;;;11.10;75.04;99250.95;219571;1273;22705;-69
2022/05/07 01:03:17;;;;;;;20.90;16.30;;;;;;;11.12;75.18;99251.58;219670;1273;25320;-67
2022/05/07 01:08:21;;;;;;;20.80;16.10;;;;;;;11.19;75.74;99246.54;219537;1274;22709;-70
2022/05/07 01:13:45;;;;;;;21.40;15.70;;;;;;;11.26;75.68;99245.73;219432;1273;22574;-68
2022/05/07 01:18:51;;;;;;;22.70;15.40;;;;;;;11.33;75.58;99240.35;219934;1274;23856;-69
2022/05/07 01:23:53;;;;;;;22.50;15.50;;;;;;;11.39;75.67;99239.17;219278;1274;22535;-70
2022/05/07 01:29:03;;;;;;;19.30;13.90;;;;;;;11.42;75.56;99239.95;219201;1274;25377;-69
2022/05/07 01:34:22;;;;;;;18.80;13.90;;;;;;;11.44;75.36;99237.20;219279;1274;22708;-69
2022/05/07 01:39:30;;;;;;;17.80;13.50;;;;;;;11.48;75.25;99238.77;219176;1274;25371;-69
2022/05/07 01:44:58;;;;;;;17.70;13.30;;;;;;;11.54;74.96;99237.22;219313;1275;24291;-67
2022/05/07 01:50:21;;;;;;;15.90;12.90;;;;;;;11.59;74.68;99233.35;219330;1274;24260;-69
2022/05/07 01:55:23;;;;;;;16.50;12.50;;;;;;;11.64;74.50;99235.66;219214;1275;22574;-70
2022/05/07 02:00:27;;;;;;;16.80;12.50;;;;;;;11.69;74.39;99235.13;219814;1274;22749;-70
2022/05/07 02:05:30;;;;;;;17.20;13.70;;;;;;;11.73;74.39;99233.63;219832;1274;23098;-70
2022/05/07 02:10:33;;;;;;;16.80;13.60;;;;;;;11.78;74.26;99229.24;219261;1274;23099;-70
2022/05/07 02:15:36;;;;;;;17.90;13.30;;;;;;;11.81;74.37;99230.66;219247;1275;24346;-70
2022/05/07 02:20:39;;;;;;;15.40;12.80;;;;;;;11.84;74.23;99227.09;220973;1273;24257;-69
2022/05/07 02:25:42;;;;;;;17.00;12.70;;;;;;;11.86;74.10;99230.07;219495;1276;25373;-69
2022/05/07 02:30:45;;;;;;;14.60;12.60;;;;;;;11.86;73.73;99226.16;219149;1276;22573;-70
2022/05/07 02:35:53;;;;;;;16.40;12.30;;;;;;;11.84;73.78;99230.95;220237;1274;23985;-67
2022/05/07 02:46:23;;;;;;;15.40;12.60;;;;;;;11.80;73.87;99233.63;219737;1274;25395;-69
2022/05/07 02:51:57;;;;;;;17.90;14.80;;;;;;;11.79;74.21;99236.09;219751;1274;24328;-69
2022/05/07 02:57:02;;;;;;;18.20;14.30;;;;;;;11.74;74.67;99240.28;219313;1275;25940;-69
2022/05/07 03:02:07;;;;;;;20.40;14.80;;;;;;;11.71;75.06;99240.42;219584;1275;22556;-69
2022/05/07 03:07:32;;;;;;;19.70;15.60;;;;;;;11.68;75.42;99241.36;219211;1274;25259;-69
2022/05/07 03:12:39;;;;;;;19.00;14.60;;;;;;;11.70;75.40;99243.23;219753;1274;25204;-69
2022/05/07 03:17:45;;;;;;;19.70;15.20;;;;;;;11.72;75.85;99244.39;219245;1276;25463;-70
2022/05/07 03:22:48;;;;;;;18.90;15.50;;;;;;;11.75;75.71;99247.63;219382;1274;24226;-70
2022/05/07 03:27:54;;;;;;;20.30;15.50;;;;;;;11.77;75.74;99243.69;219305;1273;25302;-69
2022/05/07 03:32:57;;;;;;;19.20;15.40;;;;;;;11.76;75.81;99245.68;219520;1274;24179;-69
2022/05/07 03:38:03;;;;;;;19.50;14.70;;;;;;;11.73;75.72;99245.18;219333;1274;22560;-69
2022/05/07 03:43:08;;;;;;;19.90;15.00;;;;;;;11.72;75.96;99253.30;219188;1274;22550;-70
2022/05/07 03:48:10;;;;;;;17.60;14.70;;;;;;;11.71;76.08;99250.36;219257;1274;22565;-70
2022/05/07 03:53:30;;;;;;;19.20;14.60;;;;;;;11.73;76.24;99252.27;219207;1274;25330;-70
2022/05/07 03:58:43;;;;;;;19.10;14.40;;;;;;;11.77;76.22;99252.91;221169;1274;22561;-70
2022/05/07 04:03:55;;;;;;;16.60;13.80;;;;;;;11.81;76.36;99255.14;219410;1273;22787;-68
2022/05/07 04:09:03;;;;;;;19.30;14.10;;;;;;;11.84;76.12;99258.77;220103;1273;22792;-70
2022/05/07 04:14:07;;;;;;;18.30;13.80;;;;;;;11.84;76.20;99260.42;219300;1273;25502;-70
2022/05/07 04:19:11;;;;;;;19.50;13.90;;;;;;;11.84;76.11;99265.90;219276;1274;22717;-69
2022/05/07 04:24:17;;;;;;;17.80;13.80;;;;;;;11.87;76.13;99269.90;219456;1274;22553;-69
2022/05/07 04:29:21;;;;;;;18.40;14.10;;;;;;;11.90;76.34;99267.77;218897;1275;22557;-69
2022/05/07 04:34:33;;;;;;;20.70;14.00;;;;;;;11.96;76.65;99273.38;219203;1276;25408;-69
2022/05/07 04:39:37;;;;;;;18.20;14.20;;;;;;;12.02;76.59;99271.28;219120;1276;22562;-69
2022/05/07 04:44:42;;;;;;;16.30;14.30;;;;;;;12.08;76.68;99274.30;220994;1276;22561;-69
2022/05/07 04:50:01;;;;;;;19.60;14.80;;;;;;;12.18;76.76;99276.61;219248;1276;22538;-69
2022/05/07 04:55:17;;;;;;;18.30;14.90;;;;;;;12.29;76.30;99276.92;219406;1276;27276;-70
2022/05/07 05:00:22;;;;;;;18.20;13.60;;;;;;;12.43;76.11;99279.98;219401;1274;25061;-69
2022/05/07 05:05:32;;;;;;;17.30;13.60;;;;;;;12.55;75.99;99285.85;220174;1276;25397;-69
2022/05/07 05:10:45;;;;;;;18.30;13.40;;;;;;;12.63;75.78;99287.24;219218;1274;25255;-70
2022/05/07 05:15:50;;;;;;;32.10;22.40;;;;;;;12.74;75.58;99293.55;219150;1276;22542;-69
2022/05/07 05:21:04;;;;;;;18.10;15.10;;;;;;;12.89;75.34;99294.80;219482;1273;22770;-69
2022/05/07 05:26:38;;;;;;;16.40;13.10;;;;;;;13.09;74.83;99294.27;219375;1274;25309;-70
2022/05/07 05:31:44;;;;;;;18.00;13.90;;;;;;;13.30;74.31;99299.58;219247;1273;25367;-70
2022/05/07 05:37:23;;;;;;;19.20;13.70;;;;;;;13.49;73.47;99301.33;219448;1274;22664;-69
2022/05/07 05:42:35;;;;;;;16.40;13.30;;;;;;;13.62;72.33;99307.54;219378;1274;22797;-70
2022/05/07 05:47:38;;;;;;;20.10;14.10;;;;;;;13.73;71.44;99310.27;221127;1274;22536;-69
2022/05/07 05:52:42;;;;;;;19.80;15.00;;;;;;;13.84;70.97;99310.12;219234;1274;22619;-70
2022/05/07 05:57:45;;;;;;;19.40;14.20;;;;;;;13.99;70.51;99314.31;219765;1274;25919;-69
2022/05/07 06:02:48;;;;;;;18.20;12.60;;;;;;;14.10;69.75;99318.52;219630;1274;22577;-70
2022/05/07 06:07:57;;;;;;;17.60;13.20;;;;;;;14.23;69.45;99322.23;219735;1274;24781;-68
2022/05/07 06:13:07;;;;;;;16.10;11.90;;;;;;;14.36;69.15;99320.27;219440;1274;22484;-69
2022/05/07 06:18:15;;;;;;;16.10;11.90;;;;;;;14.46;68.51;99319.84;219606;1274;24243;-69
2022/05/07 06:23:18;;;;;;;18.30;13.10;;;;;;;14.47;67.87;99322.77;219287;1274;25823;-70
2022/05/07 06:28:27;;;;;;;19.10;12.60;;;;;;;14.49;67.63;99325.33;219531;1275;22640;-70
2022/05/07 06:33:33;;;;;;;14.90;12.30;;;;;;;14.55;67.31;99332.33;219552;1274;22552;-70
2022/05/07 06:38:42;;;;;;;16.10;12.60;;;;;;;14.58;67.02;99334.58;218805;1274;22547;-70
2022/05/07 06:44:07;;;;;;;16.60;11.20;;;;;;;14.61;66.84;99335.65;218941;1274;26387;-70
2022/05/07 06:49:14;;;;;;;14.60;11.30;;;;;;;14.59;66.38;99341.03;218909;1274;24301;-70
2022/05/07 06:54:28;;;;;;;15.80;11.10;;;;;;;14.62;66.46;99341.85;219845;1276;24215;-70
2022/05/07 06:59:30;;;;;;;13.40;10.50;;;;;;;14.66;66.15;99341.23;221173;1274;22582;-70
2022/05/07 07:04:33;;;;;;;15.40;10.80;;;;;;;14.69;66.09;99345.23;221225;1273;24243;-70
2022/05/07 07:09:35;;;;;;;14.00;10.70;;;;;;;14.74;65.86;99345.73;221293;1275;22621;-70
2022/05/07 07:14:39;;;;;;;16.40;11.20;;;;;;;14.79;65.57;99348.95;221144;1274;24280;-69
2022/05/07 07:19:51;;;;;;;13.00;11.20;;;;;;;14.80;65.32;99352.66;221052;1275;22535;-70
2022/05/07 07:24:58;;;;;;;16.60;11.50;;;;;;;14.78;65.19;99352.73;218990;1274;22962;-71
2022/05/07 07:30:01;;;;;;;14.00;11.10;;;;;;;14.75;65.20;99348.34;221002;1274;24236;-70
2022/05/07 07:35:07;;;;;;;19.30;11.80;;;;;;;14.75;65.34;99348.88;218901;1276;26379;-71
2022/05/07 07:40:14;;;;;;;16.50;11.10;;;;;;;14.78;65.38;99345.90;220975;1276;24230;-70
2022/05/07 07:51:03;;;;;;;17.10;13.10;;;;;;;14.85;64.97;99354.37;219054;1275;23747;-69
2022/05/07 07:56:07;;;;;;;18.10;11.90;;;;;;;14.93;64.95;99353.08;221173;1276;22585;-70
2022/05/07 08:01:13;;;;;;;17.90;12.70;;;;;;;14.97;64.15;99355.48;221123;1275;24285;-70
2022/05/07 08:06:16;;;;;;;17.30;13.00;;;;;;;15.08;64.20;99358.00;220983;1274;22554;-70
2022/05/07 08:16:44;;;;;;;16.20;11.50;;;;;;;15.49;63.93;99362.13;218859;1275;24295;-70
2022/05/07 08:21:47;;;;;;;17.90;12.60;;;;;;;15.69;63.62;99366.35;222430;1274;22537;-71
2022/05/07 08:26:49;;;;;;;17.60;12.40;;;;;;;15.86;63.29;99372.11;221307;1274;22694;-71
2022/05/07 08:31:52;;;;;;;13.80;9.90;;;;;;;16.04;62.82;99369.95;221268;1275;25328;-70
2022/05/07 08:36:58;;;;;;;13.20;9.30;;;;;;;16.19;61.70;99372.04;221113;1275;22681;-71
2022/05/07 08:42:00;;;;;;;12.10;8.90;;;;;;;16.32;60.39;99375.04;221125;1275;25259;-70
2022/05/07 08:47:13;;;;;;;12.60;7.90;;;;;;;16.41;59.71;99376.89;221183;1274;23053;-70
2022/05/07 08:52:24;;;;;;;15.00;9.40;;;;;;;16.51;59.14;99376.36;221250;1274;22567;-70
2022/05/07 08:57:29;;;;;;;12.20;8.20;;;;;;;16.66;58.90;99382.55;221183;1274;22634;-73
2022/05/07 09:02:48;;;;;;;15.30;9.10;;;;;;;16.91;58.43;99383.10;221026;1275;23141;-70
2022/05/07 09:07:53;;;;;;;13.40;8.70;;;;;;;17.12;57.58;99384.02;219112;1274;22553;-71
2022/05/07 09:13:13;;;;;;;12.80;8.00;;;;;;;17.35;57.16;99387.17;219803;1275;22590;-69
2022/05/07 09:18:18;;;;;;;11.40;7.60;;;;;;;17.56;56.62;99390.89;221511;1274;25666;-71
2022/05/07 09:23:23;;;;;;;12.40;7.70;;;;;;;17.78;56.08;99388.52;220223;1274;22489;-70
2022/05/07 09:28:26;;;;;;;14.30;8.20;;;;;;;17.92;54.94;99393.80;219897;1274;22710;-70
2022/05/07 09:33:37;;;;;;;14.30;8.60;;;;;;;18.00;54.53;99393.89;220953;1274;24251;-70
2022/05/07 09:38:39;;;;;;;13.90;8.70;;;;;;;18.02;53.91;99393.21;221205;1274;22573;-69
2022/05/07 09:43:46;;;;;;;13.10;7.60;;;;;;;18.02;53.91;99393.05;221070;1274;25313;-70
2022/05/07 09:48:49;;;;;;;12.00;7.90;;;;;;;18.18;53.68;99387.69;222048;1276;22561;-69
2022/05/07 09:59:13;;;;;;;16.30;11.00;;;;;;;18.38;52.19;99376.02;219060;1274;24803;-70
2022/05/07 10:04:53;;;;;;;17.90;13.30;;;;;;;18.46;51.65;99374.94;218946;1276;24345;-72
2022/05/07 10:10:19;;;;;;;16.90;11.70;;;;;;;18.59;51.66;99372.59;219185;1274;22568;-71
2022/05/07 10:15:23;;;;;;;17.80;12.10;;;;;;;18.81;51.28;99371.25;221120;1278;22540;-71
2022/05/07 10:20:43;;;;;;;17.30;12.20;;;;;;;19.01;51.32;99368.95;221465;1275;23496;-70
2022/05/07 10:25:56;;;;;;;11.70;8.40;;;;;;;19.20;50.98;99355.92;221824;1277;22547;-70
2022/05/07 10:31:01;;;;;;;13.10;8.50;;;;;;;19.44;50.23;99350.89;219161;1277;22586;-69
2022/05/07 10:36:08;;;;;;;11.70;7.70;;;;;;;19.82;49.79;99350.80;218846;1277;23645;-70
2022/05/07 10:41:12;;;;;;;10.90;8.90;;;;;;;20.16;48.56;99349.87;219447;1274;22588;-70
2022/05/07 10:46:18;;;;;;;12.40;7.10;;;;;;;20.34;46.02;99345.16;221923;1277;25391;-70
2022/05/07 10:51:30;;;;;;;8.30;6.60;;;;;;;20.22;46.08;99341.96;221069;1274;23211;-70
2022/05/07 10:56:45;;;;;;;8.20;6.90;;;;;;;20.39;46.59;99339.16;221589;1274;24272;-70
2022/05/07 11:02:17;;;;;;;7.50;5.80;;;;;;;20.70;45.84;99334.68;221338;1274;24354;-71
2022/05/07 11:07:27;;;;;;;10.10;6.30;;;;;;;21.00;45.52;99329.98;220867;1275;22537;-71
2022/05/07 11:12:30;;;;;;;8.00;5.70;;;;;;;21.36;44.22;99331.08;220799;1274;22582;-70
2022/05/07 11:17:41;;;;;;;7.40;5.30;;;;;;;21.32;43.03;99331.34;220645;1275;22633;-71
2022/05/07 11:22:46;;;;;;;7.90;4.90;;;;;;;21.59;43.27;99327.15;220659;1274;22565;-72
2022/05/07 11:27:51;;;;;;;6.90;4.00;;;;;;;21.78;42.90;99324.66;220889;1275;22577;-71
2022/05/07 11:32:55;;;;;;;8.70;5.40;;;;;;;22.13;42.45;99320.56;220970;1274;24008;-72
2022/05/07 11:38:12;;;;;;;6.30;5.00;;;;;;;22.18;41.92;99312.95;220925;1275;23942;-72
2022/05/07 11:48:41;;;;;;;7.80;6.30;;;;;;;21.70;39.79;99302.86;220955;1274;22563;-71
2022/05/07 11:53:46;;;;;;;8.40;6.00;;;;;;;21.28;40.35;99298.79;220772;1278;22615;-71
2022/05/07 11:59:06;;;;;;;10.20;6.50;;;;;;;21.16;41.11;99296.58;220797;1275;25316;-71
2022/05/07 12:04:09;;;;;;;17.10;12.10;;;;;;;21.22;40.05;99292.64;220690;1274;553355;-68
2022/05/07 12:09:15;;;;;;;31.90;27.00;;;;;;;21.02;40.05;99290.44;219286;1274;22681;-71
2022/05/07 12:14:27;;;;;;;13.50;9.80;;;;;;;21.06;41.24;99285.02;220731;1276;23803;-71
2022/05/07 12:19:30;;;;;;;9.00;5.70;;;;;;;21.29;41.43;99281.23;220876;1274;24282;-71
2022/05/07 12:30:02;;;;;;;8.20;5.70;;;;;;;21.49;39.61;99278.42;220152;1274;22578;-70
2022/05/07 12:35:26;;;;;;;10.30;6.00;;;;;;;21.38;39.66;99267.45;219271;1274;25234;-71
2022/05/07 12:40:29;;;;;;;7.60;5.40;;;;;;;21.29;39.98;99260.75;219372;1275;22601;-70
2022/05/07 12:45:32;;;;;;;4.20;3.10;;;;;;;21.43;40.36;99259.33;219553;1274;22528;-70
2022/05/07 12:50:44;;;;;;;3.90;3.40;;;;;;;21.47;40.10;99257.25;220866;1274;22753;-72
2022/05/07 12:56:09;;;;;;;;;;;;;;;;;;;;;
2022/05/07 13:01:32;;;;;;;4.40;3.40;;;;;;;21.58;39.40;99253.52;221101;1274;22537;-71
2022/05/07 13:06:34;;;;;;;8.50;5.20;;;;;;;21.64;39.56;99249.16;220842;1274;25300;-72
2022/05/07 13:11:39;;;;;;;5.60;4.90;;;;;;;21.76;39.51;99246.88;220696;1275;22548;-71
2022/05/07 13:16:54;;;;;;;5.80;4.70;;;;;;;21.77;39.44;99243.54;220878;1274;22616;-71
2022/05/07 13:21:57;;;;;;;5.90;4.60;;;;;;;21.89;39.51;99239.71;221043;1274;22701;-71
2022/05/07 13:27:00;;;;;;;8.90;4.80;;;;;;;22.04;39.70;99237.48;221037;1274;24231;-71
2022/05/07 13:32:08;;;;;;;6.00;5.00;;;;;;;22.29;39.71;99228.23;220937;1274;22560;-71
2022/05/07 13:37:12;;;;;;;7.20;4.90;;;;;;;22.27;39.38;99228.34;221023;1275;24333;-71
2022/05/07 13:42:17;;;;;;;7.40;5.40;;;;;;;22.47;39.13;99224.98;220980;1275;23200;-71
2022/05/07 13:47:21;;;;;;;6.80;5.20;;;;;;;22.47;38.69;99220.46;220842;1275;23283;-71
2022/05/07 13:52:24;;;;;;;6.80;4.60;;;;;;;22.33;38.54;99215.23;220803;1274;23620;-71
2022/05/07 13:57:27;;;;;;;7.00;5.70;;;;;;;22.19;38.09;99213.26;220781;1275;24223;-71
2022/05/07 14:02:46;;;;;;;7.90;5.00;;;;;;;21.93;38.92;99212.99;220724;1276;25252;-70
2022/05/07 14:07:54;;;;;;;4.90;4.10;;;;;;;22.01;38.94;99210.37;220904;1274;25433;-72
2022/05/07 14:13:05;;;;;;;5.40;3.90;;;;;;;21.78;38.11;99199.55;220541;1275;26382;-71
2022/05/07 14:18:08;;;;;;;4.40;3.90;;;;;;;21.36;38.32;99201.29;220788;1274;22595;-71
2022/05/07 14:23:14;;;;;;;4.70;4.10;;;;;;;21.12;38.50;99195.23;220666;1275;22932;-71
2022/05/07 14:28:18;;;;;;;5.30;4.10;;;;;;;20.89;38.82;99187.40;220838;1274;25319;-71
2022/05/07 14:33:40;;;;;;;4.70;3.70;;;;;;;21.02;39.60;99188.11;220833;1274;23185;-71
2022/05/07 14:39:11;;;;;;;5.40;4.00;;;;;;;21.21;38.88;99184.19;220708;1274;23268;-71
2022/05/07 14:44:20;;;;;;;6.00;4.40;;;;;;;21.26;39.58;99177.63;220793;1275;22568;-71
2022/05/07 14:49:39;;;;;;;5.70;4.40;;;;;;;21.51;39.29;99180.12;220835;1274;23308;-70
2022/05/07 14:54:43;;;;;;;6.30;4.80;;;;;;;21.78;39.40;99177.64;220792;1275;22556;-70
2022/05/07 14:59:45;;;;;;;6.60;4.80;;;;;;;22.06;38.99;99181.17;220752;1274;24223;-70
2022/05/07 15:04:48;;;;;;;5.20;4.10;;;;;;;22.27;39.02;99175.11;220740;1275;22534;-72
2022/05/07 15:15:11;;;;;;;6.10;4.50;;;;;;;22.47;38.41;99163.45;220956;1274;22703;-70
2022/05/07 15:20:16;;;;;;;7.20;4.90;;;;;;;22.47;38.72;99160.16;220890;1274;22769;-73
2022/05/07 15:25:26;;;;;;;6.00;4.60;;;;;;;22.57;38.48;99157.96;220750;1275;22663;-71
2022/05/07 15:30:29;;;;;;;7.40;4.90;;;;;;;22.60;38.20;99155.58;220752;1274;25428;-71
2022/05/07 15:40:53;;;;;;;7.00;5.00;;;;;;;22.23;38.06;99152.70;221043;1275;22557;-71
2022/05/07 15:45:55;;;;;;;5.20;4.50;;;;;;;22.01;37.90;99149.96;220772;1274;22563;-70
2022/05/07 15:51:10;;;;;;;23.40;19.30;;;;;;;21.82;37.96;99152.05;219526;1274;22661;-71
2022/05/07 15:56:20;;;;;;;;;;;;;;;21.72;38.29;99146.27;219370;1274;25360;-72
2022/05/07 16:01:22;;;;;;;6.40;4.50;;;;;;;21.56;38.74;99141.86;220889;1274;22561;-70
2022/05/07 16:06:26;;;;;;;6.80;4.60;;;;;;;21.51;38.99;99139.16;219374;1274;22729;-71
2022/05/07 16:11:29;;;;;;;5.30;4.00;;;;;;;21.49;38.81;99136.52;220861;1274;22647;-71
2022/05/07 16:16:31;;;;;;;6.00;4.10;;;;;;;21.35;38.53;99132.13;220743;1274;23049;-71
2022/05/07 16:21:33;;;;;;;7.90;5.80;;;;;;;21.22;39.12;99131.52;220833;1274;22588;-70
2022/05/07 16:26:42;;;;;;;7.30;5.20;;;;;;;21.10;39.06;99132.14;220624;1275;25315;-70
2022/05/07 16:31:45;;;;;;;6.80;5.50;;;;;;;20.76;38.70;99131.80;219103;1274;25409;-70
2022/05/07 16:36:54;;;;;;;5.50;4.30;;;;;;;20.41;38.83;99126.38;219214;1274;22588;-70
2022/05/07 16:41:59;;;;;;;5.90;4.20;;;;;;;20.15;39.50;99126.74;219250;1274;22470;-70
2022/05/07 16:47:03;;;;;;;6.40;4.80;;;;;;;19.98;39.89;99122.74;219294;1274;22696;-71
2022/05/07 16:52:08;;;;;;;5.50;4.40;;;;;;;19.86;40.06;99123.87;219197;1275;23355;-71
2022/05/07 16:57:13;;;;;;;7.40;4.30;;;;;;;19.79;40.36;99128.91;219938;1274;25351;-70
2022/05/07 17:02:19;;;;;;;7.30;6.20;;;;;;;19.71;40.43;99129.51;221026;1274;25493;-70
2022/05/07 17:07:21;;;;;;;12.60;10.20;;;;;;;19.65;40.57;99132.88;221094;1274;24455;-70
2022/05/07 17:12:26;;;;;;;7.20;4.90;;;;;;;19.57;40.77;99136.61;220738;1274;22591;-72
2022/05/07 17:17:29;;;;;;;5.80;4.50;;;;;;;19.46;41.00;99141.98;219511;1274;22663;-70
2022/05/07 17:22:31;;;;;;;5.90;4.90;;;;;;;19.34;41.25;99139.52;220888;1275;22576;-71
2022/05/07 17:27:33;;;;;;;6.50;4.60;;;;;;;19.17;41.43;99139.73;220593;1276;25511;-71
2022/05/07 17:32:36;;;;;;;7.40;5.20;;;;;;;18.95;41.80;99143.70;220847;1275;22962;-71
2022/05/07 17:37:38;;;;;;;8.30;5.90;;;;;;;18.73;42.01;99144.80;221246;1274;23351;-71
2022/05/07 17:42:56;;;;;;;8.20;4.70;;;;;;;18.50;42.73;99142.72;220814;1274;22605;-71
2022/05/07 17:53:39;;;;;;;10.90;8.40;;;;;;;17.82;45.67;99158.46;220800;1274;22568;-70
2022/05/07 17:58:41;;;;;;;15.00;11.70;;;;;;;17.45;47.44;99161.30;220796;1274;22537;-70
2022/05/07 18:03:48;;;;;;;15.30;11.80;;;;;;;17.11;48.98;99167.59;220805;1274;22478;-71
2022/05/07 18:08:54;;;;;;;13.90;11.90;;;;;;;16.80;50.13;99168.95;220909;1274;22721;-71
2022/05/07 18:13:57;;;;;;;17.70;13.00;;;;;;;16.58;50.82;99171.67;220858;1274;23042;-73
2022/05/07 18:19:07;;;;;;;17.70;12.30;;;;;;;16.35;51.95;99175.11;221465;1275;22563;-70
2022/05/07 18:24:14;;;;;;;18.00;12.60;;;;;;;16.08;52.66;99182.84;221695;1276;22648;-71
2022/05/07 18:29:20;;;;;;;16.70;11.70;;;;;;;15.82;53.71;99188.89;220796;1274;25129;-71
2022/05/07 18:34:35;;;;;;;21.40;15.60;;;;;;;15.59;54.61;99198.64;220715;1274;22534;-72
2022/05/07 18:45:10;;;;;;;22.10;14.30;;;;;;;15.22;56.32;99204.17;219250;1274;24852;-71
2022/05/07 18:50:17;;;;;;;18.30;14.20;;;;;;;15.07;57.05;99204.11;220791;1275;22536;-71
2022/05/07 19:00:43;;;;;;;21.10;15.00;;;;;;;14.83;58.06;99205.92;220823;1274;25579;-72
2022/05/07 19:05:48;;;;;;;23.50;18.30;;;;;;;14.75;58.59;99202.70;221946;1275;24212;-71
2022/05/07 19:10:51;;;;;;;21.40;15.00;;;;;;;14.68;58.76;99200.66;220629;1275;22675;-71
2022/05/07 19:15:54;;;;;;;18.60;14.50;;;;;;;14.63;59.52;99205.40;220761;1274;25547;-70
2022/05/07 19:20:58;;;;;;;20.90;15.20;;;;;;;14.59;59.92;99209.30;221389;1274;24352;-70
2022/05/07 19:26:00;;;;;;;21.50;16.60;;;;;;;14.55;60.41;99210.58;220711;1275;22542;-70
2022/05/07 19:31:04;;;;;;;21.60;15.90;;;;;;;14.51;60.39;99212.05;220770;1275;22545;-71
2022/05/07 19:36:06;;;;;;;20.90;15.30;;;;;;;14.46;60.62;99211.41;221460;1274;25461;-71
2022/05/07 19:41:29;;;;;;;29.30;21.80;;;;;;;14.42;60.92;99211.11;220777;1274;22562;-71
2022/05/07 19:46:34;;;;;;;18.20;14.60;;;;;;;14.40;61.44;99210.59;220721;1275;22551;-71
2022/05/07 19:51:36;;;;;;;23.20;17.10;;;;;;;14.37;61.75;99211.45;220704;1276;22705;-70
2022/05/07 19:56:39;;;;;;;20.80;16.00;;;;;;;14.34;61.83;99209.14;219203;1276;23960;-71
2022/05/07 20:01:42;;;;;;;24.10;17.50;;;;;;;14.32;62.05;99208.05;221207;1274;25076;-71
2022/05/07 20:06:59;;;;;;;23.60;17.50;;;;;;;14.31;62.57;99211.37;221198;1274;22551;-70
2022/05/07 20:12:02;;;;;;;30.20;22.20;;;;;;;14.31;62.67;99213.52;221048;1274;25322;-70
2022/05/07 20:17:05;;;;;;;24.10;18.70;;;;;;;14.30;62.70;99211.92;220775;1274;24807;-71
2022/05/07 20:22:11;;;;;;;22.90;18.00;;;;;;;14.29;62.96;99208.81;220568;1274;22557;-71
2022/05/07 20:27:15;;;;;;;23.50;18.40;;;;;;;14.28;63.07;99211.37;220700;1276;24455;-71
2022/05/07 20:32:17;;;;;;;32.70;25.00;;;;;;;14.26;63.11;99205.23;220807;1274;22729;-71
2022/05/07 20:37:22;;;;;;;28.00;21.20;;;;;;;14.22;63.33;99208.27;220749;1275;22610;-73
2022/05/07 20:42:25;;;;;;;30.60;23.20;;;;;;;14.17;63.52;99208.31;220840;1276;25410;-72
2022/05/07 20:47:28;;;;;;;24.30;19.50;;;;;;;14.14;63.74;99208.05;220837;1275;23431;-71
2022/05/07 20:52:31;;;;;;;23.20;18.40;;;;;;;14.09;63.99;99210.41;221148;1275;25380;-71
2022/05/07 20:57:34;;;;;;;24.50;18.50;;;;;;;14.03;64.21;99206.92;221406;1274;25188;-71
2022/05/07 21:02:36;;;;;;;27.00;20.70;;;;;;;13.97;64.52;99205.54;220833;1274;22549;-71
2022/05/07 21:07:38;;;;;;;30.00;21.00;;;;;;;13.92;64.56;99210.48;220739;1274;22609;-71
2022/05/07 21:12:43;;;;;;;31.80;22.60;;;;;;;13.85;64.80;99209.64;220679;1274;25356;-71
2022/05/07 21:17:45;;;;;;;32.30;25.00;;;;;;;13.79;64.85;99212.67;220837;1276;22550;-70
2022/05/07 21:22:48;;;;;;;30.20;23.60;;;;;;;13.74;65.00;99217.88;220659;1274;22548;-72
2022/05/07 21:27:50;;;;;;;29.60;22.60;;;;;;;13.71;65.15;99216.83;220674;1275;22560;-71
2022/05/07 21:32:52;;;;;;;30.70;22.40;;;;;;;13.67;65.32;99222.70;220858;1275;22712;-71
2022/05/07 21:37:57;;;;;;;30.60;23.10;;;;;;;13.64;65.47;99224.00;220666;1274;22592;-73
2022/05/07 21:43:02;;;;;;;29.60;22.20;;;;;;;13.62;65.65;99225.42;220642;1275;26387;-70
2022/05/07 21:48:05;;;;;;;27.60;21.40;;;;;;;13.61;65.86;99229.76;220799;1274;22634;-70
2022/05/07 21:53:07;;;;;;;28.50;21.60;;;;;;;13.59;65.95;99231.88;220854;1274;23472;-71
2022/05/07 21:58:10;;;;;;;29.60;22.60;;;;;;;13.56;66.09;99233.08;220919;1275;22562;-71
2022/05/07 22:03:12;;;;;;;33.00;23.00;;;;;;;13.52;66.23;99232.45;220915;1275;22697;-70
2022/05/07 22:08:18;;;;;;;28.30;22.30;;;;;;;13.45;66.37;99236.02;220712;1276;22606;-71
2022/05/07 22:13:21;;;;;;;31.70;23.70;;;;;;;13.39;66.67;99239.78;220725;1276;23241;-71
2022/05/07 22:18:23;;;;;;;32.60;24.00;;;;;;;13.31;67.02;99242.15;221025;1274;22534;-71
2022/05/07 22:23:26;;;;;;;37.80;26.10;;;;;;;13.22;67.19;99235.88;220765;1275;22542;-71
2022/05/07 22:28:30;;;;;;;31.70;24.30;;;;;;;13.11;67.37;99238.91;220824;1275;22557;-70
2022/05/07 22:33:35;;;;;;;37.30;25.80;;;;;;;13.00;67.70;99238.55;219106;1274;24327;-70
2022/05/07 22:38:37;;;;;;;34.50;25.20;;;;;;;12.89;67.87;99235.16;218713;1274;25235;-71
2022/05/07 22:43:50;;;;;;;36.60;27.30;;;;;;;12.76;68.13;99231.85;220540;1276;25455;-71
2022/05/07 22:48:53;;;;;;;36.50;26.80;;;;;;;12.65;68.26;99234.86;220609;1277;22541;-70
2022/05/07 22:53:55;;;;;;;35.20;25.90;;;;;;;12.54;68.65;99238.14;220614;1275;22692;-71
2022/05/07 22:58:58;;;;;;;33.40;26.00;;;;;;;12.43;68.96;99236.56;220458;1273;22549;-71
2022/05/07 23:04:03;;;;;;;47.60;32.30;;;;;;;12.31;69.14;99234.67;220547;1274;22575;-71
2022/05/07 23:09:05;;;;;;;49.40;33.20;;;;;;;12.19;69.51;99240.77;220542;1275;22538;-71
2022/05/07 23:14:19;;;;;;;47.40;33.20;;;;;;;12.09;69.86;99249.98;220483;1274;22542;-72
2022/05/07 23:19:23;;;;;;;46.00;31.10;;;;;;;12.01;70.19;99244.60;220496;1275;23222;-71
2022/05/07 23:24:39;;;;;;;45.40;30.80;;;;;;;11.95;70.38;99244.92;218981;1274;25364;-71
2022/05/07 23:29:44;;;;;;;45.90;29.60;;;;;;;11.89;70.84;99245.00;220664;1275;25588;-70
2022/05/07 23:34:46;;;;;;;43.90;30.60;;;;;;;11.84;71.19;99243.52;220450;1274;25760;-70
2022/05/07 23:39:51;;;;;;;46.70;31.20;;;;;;;11.79;71.31;99237.98;220607;1275;22556;-70
2022/05/07 23:44:53;;;;;;;40.10;29.20;;;;;;;11.75;71.42;99233.77;220462;1274;24314;-70
2022/05/07 23:49:56;;;;;;;47.40;33.70;;;;;;;11.71;71.42;99231.95;220606;1275;25431;-71
2022/05/07 23:55:16;;;;;;;48.60;33.40;;;;;;;11.65;71.65;99230.88;221145;1276;22610;-70
